createdAt,value
2023-09-27T00:02:26.232Z,9.60
2023-09-27T00:04:53.084Z,9.60
2023-09-27T00:07:20.027Z,9.60
2023-09-27T00:09:46.852Z,9.50
2023-09-27T00:12:13.551Z,9.50
2023-09-27T00:14:40.277Z,9.50
2023-09-27T00:17:07.030Z,9.50
2023-09-27T00:19:33.859Z,9.50
2023-09-27T00:22:00.926Z,9.50
2023-09-27T00:24:27.614Z,9.40
2023-09-27T00:26:54.328Z,9.40
2023-09-27T00:29:21.084Z,9.40
2023-09-27T00:31:47.905Z,9.40
2023-09-27T00:34:14.752Z,9.40
2023-09-27T00:36:41.462Z,9.30
2023-09-27T00:39:08.099Z,9.30
2023-09-27T00:41:34.791Z,9.30
2023-09-27T00:44:01.767Z,9.20
2023-09-27T00:46:28.575Z,9.20
2023-09-27T00:48:55.596Z,9.10
2023-09-27T00:51:22.497Z,9.10
2023-09-27T00:53:50.286Z,9.10
2023-09-27T00:56:17.533Z,9.10
2023-09-27T00:58:44.419Z,9.00
2023-09-27T01:01:12.149Z,9.00
2023-09-27T01:03:38.909Z,9.00
2023-09-27T01:06:05.776Z,8.90
2023-09-27T01:08:32.554Z,8.90
2023-09-27T01:10:59.476Z,8.80
2023-09-27T01:13:26.302Z,8.90
2023-09-27T01:15:53.060Z,8.90
2023-09-27T01:18:19.841Z,8.90
2023-09-27T01:20:46.560Z,8.80
2023-09-27T01:23:13.305Z,8.80
2023-09-27T01:25:40.233Z,8.80
2023-09-27T01:28:08.527Z,8.80
2023-09-27T01:30:35.829Z,8.80
2023-09-27T01:33:07.091Z,8.80
2023-09-27T01:35:34.600Z,8.80
2023-09-27T01:38:01.947Z,8.80
2023-09-27T01:40:31.521Z,8.80
2023-09-27T01:43:02.137Z,8.80
2023-09-27T01:45:30.418Z,9.00
2023-09-27T01:47:57.649Z,8.80
2023-09-27T01:50:26.110Z,8.80
2023-09-27T01:52:53.352Z,8.80
2023-09-27T01:55:20.558Z,8.80
2023-09-27T01:57:47.709Z,8.80
2023-09-27T02:00:18.262Z,8.70
2023-09-27T02:02:51.943Z,8.70
2023-09-27T02:05:18.860Z,8.70
2023-09-27T02:07:45.680Z,8.70
2023-09-27T02:10:12.853Z,8.70
2023-09-27T02:12:39.851Z,8.70
2023-09-27T02:15:07.549Z,8.70
2023-09-27T02:17:34.415Z,8.60
2023-09-27T02:20:01.142Z,8.60
2023-09-27T02:22:28.108Z,8.60
2023-09-27T02:24:55.128Z,8.60
2023-09-27T02:27:21.976Z,8.60
2023-09-27T02:29:48.676Z,8.60
2023-09-27T02:32:15.411Z,8.60
2023-09-27T02:34:43.475Z,8.60
2023-09-27T02:37:10.279Z,8.60
2023-09-27T02:39:37.107Z,8.50
2023-09-27T02:42:04.569Z,8.50
2023-09-27T02:44:32.311Z,8.50
2023-09-27T02:46:59.743Z,8.50
2023-09-27T02:49:26.511Z,8.50
2023-09-27T02:51:53.313Z,8.50
2023-09-27T02:54:20.861Z,8.50
2023-09-27T02:56:48.429Z,8.50
2023-09-27T02:59:15.294Z,8.50
2023-09-27T03:01:42.864Z,8.40
2023-09-27T03:04:12.857Z,8.40
2023-09-27T03:06:40.459Z,8.30
2023-09-27T03:09:08.099Z,8.40
2023-09-27T03:11:34.912Z,8.40
2023-09-27T03:14:01.873Z,8.40
2023-09-27T03:16:28.929Z,8.40
2023-09-27T03:18:59.647Z,8.40
2023-09-27T03:21:27.800Z,8.40
2023-09-27T03:23:54.943Z,8.40
2023-09-27T03:26:21.972Z,8.40
2023-09-27T03:28:48.760Z,8.40
2023-09-27T03:31:15.699Z,8.30
2023-09-27T03:33:42.939Z,8.30
2023-09-27T03:36:09.654Z,8.50
2023-09-27T03:38:37.866Z,8.20
2023-09-27T03:41:08.671Z,8.20
2023-09-27T03:43:38.334Z,8.20
2023-09-27T03:46:05.524Z,8.20
2023-09-27T03:48:32.450Z,8.10
2023-09-27T03:50:59.632Z,8.10
2023-09-27T03:53:26.407Z,8.10
2023-09-27T03:55:53.184Z,8.10
2023-09-27T03:58:19.972Z,8.10
2023-09-27T04:00:46.779Z,8.10
2023-09-27T04:03:13.625Z,8.10
2023-09-27T04:05:40.597Z,8.10
2023-09-27T04:08:07.806Z,8.00
2023-09-27T04:10:35.193Z,8.00
2023-09-27T04:13:01.857Z,8.00
2023-09-27T04:15:28.594Z,8.00
2023-09-27T04:17:55.364Z,8.00
2023-09-27T04:20:22.979Z,8.00
2023-09-27T04:22:50.518Z,7.90
2023-09-27T04:25:18.329Z,7.90
2023-09-27T04:27:47.197Z,7.90
2023-09-27T04:30:20.063Z,7.90
2023-09-27T04:32:48.117Z,7.90
2023-09-27T04:35:15.071Z,7.90
2023-09-27T04:37:41.909Z,7.90
2023-09-27T04:40:15.407Z,7.90
2023-09-27T04:42:43.212Z,8.00
2023-09-27T04:45:11.336Z,8.00
2023-09-27T04:47:38.518Z,7.90
2023-09-27T04:50:09.287Z,7.90
2023-09-27T04:52:40.962Z,7.90
2023-09-27T04:55:11.270Z,7.90
2023-09-27T04:57:38.287Z,7.90
2023-09-27T05:00:07.236Z,7.90
2023-09-27T05:02:34.056Z,7.90
2023-09-27T05:05:00.829Z,7.90
2023-09-27T05:07:27.634Z,7.90
2023-09-27T05:09:54.377Z,7.80
2023-09-27T05:12:21.114Z,7.90
2023-09-27T05:14:47.971Z,7.90
2023-09-27T05:17:14.719Z,7.90
2023-09-27T05:19:41.452Z,7.90
2023-09-27T05:22:08.144Z,7.90
2023-09-27T05:24:39.957Z,7.90
2023-09-27T05:27:07.670Z,7.90
2023-09-27T05:29:34.807Z,8.00
2023-09-27T05:32:01.601Z,8.00
2023-09-27T05:34:30.244Z,8.10
2023-09-27T05:36:57.400Z,8.20
2023-09-27T05:39:24.429Z,8.30
2023-09-27T05:41:51.144Z,8.50
2023-09-27T05:44:18.222Z,8.60
2023-09-27T05:46:45.470Z,8.70
2023-09-27T05:49:13.051Z,8.90
2023-09-27T05:51:39.865Z,9.00
2023-09-27T05:54:06.970Z,9.10
2023-09-27T05:56:39.129Z,9.30
2023-09-27T05:59:12.912Z,9.50
2023-09-27T06:01:40.469Z,10.40
2023-09-27T06:04:07.722Z,11.90
2023-09-27T06:06:35.652Z,13.10
2023-09-27T06:09:02.353Z,14.20
2023-09-27T06:11:29.202Z,15.20
2023-09-27T06:13:55.931Z,16.10
2023-09-27T06:16:22.943Z,17.20
2023-09-27T06:18:49.916Z,18.70
2023-09-27T06:21:16.655Z,20.10
2023-09-27T06:23:43.497Z,21.20
2023-09-27T06:26:10.878Z,22.10
2023-09-27T06:28:39.454Z,22.70
2023-09-27T06:31:07.431Z,23.30
2023-09-27T06:33:40.581Z,24.00
2023-09-27T06:36:09.008Z,24.40
2023-09-27T06:38:36.576Z,24.90
2023-09-27T06:41:04.052Z,25.50
2023-09-27T06:43:32.531Z,26.00
2023-09-27T06:46:02.128Z,25.80
2023-09-27T06:48:29.271Z,25.70
2023-09-27T06:50:56.183Z,26.00
2023-09-27T06:53:26.038Z,26.40
2023-09-27T06:55:55.440Z,26.90
2023-09-27T06:58:24.653Z,27.40
2023-09-27T07:00:52.717Z,27.00
2023-09-27T07:03:26.680Z,27.10
2023-09-27T07:05:54.030Z,26.60
2023-09-27T07:08:21.680Z,26.90
2023-09-27T07:10:48.746Z,27.00
2023-09-27T07:13:15.998Z,26.50
2023-09-27T07:15:47.040Z,27.00
2023-09-27T07:18:14.072Z,26.60
2023-09-27T07:20:41.574Z,27.00
2023-09-27T07:23:09.519Z,26.70
2023-09-27T07:25:38.894Z,26.90
2023-09-27T07:28:07.113Z,27.30
2023-09-27T07:30:34.928Z,27.40
2023-09-27T07:33:04.792Z,27.90
2023-09-27T07:35:34.187Z,28.50
2023-09-27T07:38:02.206Z,28.30
2023-09-27T07:40:29.046Z,28.20
2023-09-27T07:42:56.148Z,28.60
2023-09-27T07:45:23.277Z,29.80
2023-09-27T07:47:51.930Z,30.80
2023-09-27T07:50:20.309Z,30.70
2023-09-27T07:52:48.869Z,30.90
2023-09-27T07:55:15.896Z,30.50
2023-09-27T07:57:44.958Z,30.50
2023-09-27T08:00:12.306Z,30.40
2023-09-27T08:02:39.710Z,30.30
2023-09-27T08:05:11.005Z,30.70
2023-09-27T08:07:41.562Z,30.80
2023-09-27T08:10:21.414Z,31.10
2023-09-27T08:12:49.329Z,31.00
2023-09-27T08:15:18.805Z,32.00
2023-09-27T08:17:47.537Z,31.60
2023-09-27T08:20:14.797Z,31.50
2023-09-27T08:22:41.811Z,31.30
2023-09-27T08:25:16.666Z,31.70
2023-09-27T08:27:44.014Z,31.40
2023-09-27T08:30:11.296Z,31.20
2023-09-27T08:32:39.870Z,31.30
2023-09-27T08:35:08.302Z,31.80
2023-09-27T08:37:35.321Z,32.30
2023-09-27T08:40:02.266Z,31.20
2023-09-27T08:42:30.229Z,31.60
2023-09-27T08:44:58.111Z,31.50
2023-09-27T08:47:25.007Z,32.40
2023-09-27T08:49:52.249Z,32.70
2023-09-27T08:52:19.170Z,33.20
2023-09-27T08:54:45.974Z,32.70
2023-09-27T08:57:12.765Z,32.60
2023-09-27T08:59:40.111Z,33.10
2023-09-27T09:02:07.344Z,32.70
2023-09-27T09:04:34.120Z,33.70
2023-09-27T09:07:02.833Z,33.10
2023-09-27T09:09:31.484Z,32.50
2023-09-27T09:12:01.312Z,32.10
2023-09-27T09:14:51.272Z,33.20
2023-09-27T09:17:26.060Z,33.00
2023-09-27T09:20:16.562Z,33.60
2023-09-27T09:22:44.289Z,33.70
2023-09-27T09:25:11.052Z,33.40
2023-09-27T09:27:42.786Z,34.00
2023-09-27T09:30:13.759Z,33.40
2023-09-27T09:32:53.048Z,33.70
2023-09-27T09:35:31.385Z,33.60
2023-09-27T09:37:59.210Z,33.50
2023-09-27T09:40:26.033Z,34.20
2023-09-27T09:42:52.923Z,34.50
2023-09-27T09:45:21.151Z,34.50
2023-09-27T09:47:48.080Z,35.10
2023-09-27T09:50:18.598Z,34.40
2023-09-27T09:52:55.088Z,33.90
2023-09-27T09:55:36.902Z,33.90
2023-09-27T09:58:16.103Z,34.40
2023-09-27T10:00:52.461Z,33.30
2023-09-27T10:03:21.865Z,33.30
2023-09-27T10:05:51.782Z,33.80
2023-09-27T10:08:19.952Z,33.40
2023-09-27T10:10:46.921Z,33.40
2023-09-27T10:13:14.722Z,33.20
2023-09-27T10:15:42.048Z,33.40
2023-09-27T10:18:24.101Z,34.00
2023-09-27T10:21:03.813Z,34.40
2023-09-27T10:23:38.762Z,33.80
2023-09-27T10:26:24.263Z,34.40
2023-09-27T10:29:04.504Z,33.40
2023-09-27T10:31:35.274Z,32.70
2023-09-27T10:34:02.063Z,32.80
2023-09-27T10:36:29.885Z,32.20
2023-09-27T10:38:56.706Z,31.90
2023-09-27T10:41:35.883Z,32.50
2023-09-27T10:44:03.581Z,31.90
2023-09-27T10:46:56.788Z,31.00
2023-09-27T10:49:25.835Z,31.10
2023-09-27T10:52:00.574Z,32.20
2023-09-27T10:54:34.811Z,31.80
2023-09-27T10:57:03.309Z,32.00
2023-09-27T10:59:30.652Z,31.50
2023-09-27T11:01:58.222Z,30.70
2023-09-27T11:04:25.843Z,30.80
2023-09-27T11:06:52.898Z,30.40
2023-09-27T11:09:20.690Z,30.40
2023-09-27T11:11:49.134Z,30.20
2023-09-27T11:14:29.338Z,30.40
2023-09-27T11:16:56.200Z,29.70
2023-09-27T11:19:29.291Z,29.30
2023-09-27T11:21:56.113Z,29.10
2023-09-27T11:24:23.341Z,28.30
2023-09-27T11:26:50.164Z,28.10
2023-09-27T11:29:17.325Z,28.40
2023-09-27T11:31:44.115Z,28.30
2023-09-27T11:34:11.627Z,28.30
2023-09-27T11:36:42.052Z,27.80
2023-09-27T11:39:08.769Z,27.90
2023-09-27T11:41:35.695Z,28.30
2023-09-27T11:44:15.501Z,27.90
2023-09-27T11:46:42.307Z,27.80
2023-09-27T11:49:11.921Z,28.10
2023-09-27T11:51:38.914Z,27.70
2023-09-27T11:54:06.250Z,27.50
2023-09-27T11:56:35.121Z,27.50
2023-09-27T11:59:03.889Z,27.50
2023-09-27T12:01:30.773Z,27.50
2023-09-27T12:03:57.903Z,27.70
2023-09-27T12:06:27.137Z,27.90
2023-09-27T12:08:55.663Z,28.20
2023-09-27T12:11:23.133Z,28.20
2023-09-27T12:13:51.081Z,27.90
2023-09-27T12:16:19.361Z,27.90
2023-09-27T12:18:46.114Z,28.10
2023-09-27T12:21:13.202Z,28.00
2023-09-27T12:23:40.178Z,28.10
2023-09-27T12:26:07.872Z,27.90
2023-09-27T12:28:37.967Z,27.70
2023-09-27T12:31:07.850Z,27.70
2023-09-27T12:33:36.565Z,27.70
2023-09-27T12:36:04.756Z,27.70
2023-09-27T12:38:31.771Z,27.50
2023-09-27T12:41:01.641Z,27.50
2023-09-27T12:43:28.550Z,27.50
2023-09-27T12:45:55.379Z,27.70
2023-09-27T12:48:22.398Z,27.90
2023-09-27T12:50:49.247Z,27.70
2023-09-27T12:53:17.006Z,27.50
2023-09-27T12:55:43.883Z,27.10
2023-09-27T12:58:12.016Z,27.30
2023-09-27T13:00:39.510Z,27.20
2023-09-27T13:03:08.338Z,27.30
2023-09-27T13:05:38.704Z,27.50
2023-09-27T13:08:05.871Z,27.50
2023-09-27T13:10:36.119Z,27.30
2023-09-27T13:13:03.793Z,27.30
2023-09-27T13:15:30.762Z,27.10
2023-09-27T13:17:57.631Z,27.30
2023-09-27T13:20:24.581Z,27.30
2023-09-27T13:22:51.388Z,27.00
2023-09-27T13:25:18.397Z,26.80
2023-09-27T13:27:45.667Z,27.00
2023-09-27T13:30:25.579Z,26.80
2023-09-27T13:33:00.809Z,26.80
2023-09-27T13:35:27.905Z,26.90
2023-09-27T13:37:54.700Z,26.80
2023-09-27T13:40:21.523Z,26.70
2023-09-27T13:42:48.235Z,26.70
2023-09-27T13:45:15.171Z,26.70
2023-09-27T13:47:42.124Z,26.70
2023-09-27T13:50:10.517Z,26.80
2023-09-27T13:52:38.062Z,26.90
2023-09-27T13:55:04.988Z,27.00
2023-09-27T13:57:32.007Z,27.00
2023-09-27T13:59:58.880Z,26.80
2023-09-27T14:02:25.780Z,26.80
2023-09-27T14:04:54.622Z,26.70
2023-09-27T14:07:21.462Z,26.50
2023-09-27T14:09:49.667Z,26.50
2023-09-27T14:12:16.766Z,26.50
2023-09-27T14:14:45.315Z,26.50
2023-09-27T14:17:12.937Z,26.40
2023-09-27T14:19:40.195Z,26.20
2023-09-27T14:22:07.277Z,26.10
2023-09-27T14:24:34.901Z,25.90
2023-09-27T14:27:02.336Z,25.70
2023-09-27T14:29:35.581Z,25.60
2023-09-27T14:32:05.651Z,25.50
2023-09-27T14:37:08.040Z,25.60
2023-09-27T14:39:35.407Z,25.60
2023-09-27T14:42:02.412Z,25.80
2023-09-27T14:44:31.716Z,25.90
2023-09-27T14:46:58.466Z,25.90
2023-09-27T14:49:25.375Z,25.90
2023-09-27T14:51:52.705Z,25.80
2023-09-27T14:54:19.439Z,25.90
2023-09-27T14:56:46.316Z,25.90
2023-09-27T14:59:13.240Z,25.80
2023-09-27T15:01:40.268Z,25.70
2023-09-27T15:04:07.995Z,25.80
2023-09-27T15:06:34.764Z,25.70
2023-09-27T15:09:01.576Z,25.70
2023-09-27T15:11:28.430Z,25.80
2023-09-27T15:13:57.466Z,25.70
2023-09-27T15:16:24.358Z,25.60
2023-09-27T15:18:51.294Z,25.60
2023-09-27T15:21:18.074Z,25.60
2023-09-27T15:23:47.002Z,25.70
2023-09-27T15:26:13.933Z,25.70
2023-09-27T15:28:40.758Z,25.70
2023-09-27T15:31:10.767Z,25.70
2023-09-27T15:33:41.212Z,25.70
2023-09-27T15:36:09.070Z,25.70
2023-09-27T15:38:35.847Z,25.60
2023-09-27T15:41:05.292Z,25.50
2023-09-27T15:43:33.520Z,25.40
2023-09-27T15:46:01.093Z,25.30
2023-09-27T15:48:31.186Z,25.20
2023-09-27T15:50:58.868Z,25.20
2023-09-27T15:53:29.657Z,25.10
2023-09-27T15:55:56.746Z,25.00
2023-09-27T15:58:23.753Z,25.00
2023-09-27T16:00:50.621Z,25.00
2023-09-27T16:03:17.430Z,25.00
2023-09-27T16:05:50.625Z,24.90
2023-09-27T16:08:21.487Z,24.90
2023-09-27T16:10:55.067Z,24.80
2023-09-27T16:13:23.515Z,24.80
2023-09-27T16:15:51.373Z,24.70
2023-09-27T16:18:18.832Z,24.70
2023-09-27T16:20:45.829Z,24.60
2023-09-27T16:23:13.277Z,24.50
2023-09-27T16:25:40.093Z,24.50
2023-09-27T16:28:07.986Z,24.40
2023-09-27T16:30:36.095Z,24.30
2023-09-27T16:33:05.497Z,24.20
2023-09-27T16:35:36.961Z,24.00
2023-09-27T16:38:04.145Z,23.90
2023-09-27T16:40:30.898Z,23.80
2023-09-27T16:42:58.896Z,23.70
2023-09-27T16:45:25.829Z,23.60
2023-09-27T16:47:52.522Z,23.50
2023-09-27T16:50:19.428Z,23.30
2023-09-27T16:52:46.182Z,23.10
2023-09-27T16:55:12.925Z,23.00
2023-09-27T16:57:39.977Z,22.80
2023-09-27T17:00:11.432Z,22.60
2023-09-27T17:02:39.148Z,22.20
2023-09-27T17:05:06.672Z,21.80
2023-09-27T17:07:35.063Z,21.50
2023-09-27T17:10:02.974Z,21.30
2023-09-27T17:12:29.829Z,21.00
2023-09-27T17:14:56.666Z,20.70
2023-09-27T17:17:23.407Z,20.50
2023-09-27T17:19:50.434Z,20.30
2023-09-27T17:22:17.160Z,19.90
2023-09-27T17:24:43.951Z,19.60
2023-09-27T17:27:10.736Z,19.40
2023-09-27T17:29:37.522Z,19.20
2023-09-27T17:32:04.406Z,18.90
2023-09-27T17:34:31.251Z,18.80
2023-09-27T17:36:58.011Z,18.50
2023-09-27T17:39:24.697Z,18.40
2023-09-27T17:41:51.595Z,18.30
2023-09-27T17:44:18.341Z,18.20
2023-09-27T17:46:45.112Z,18.00
2023-09-27T17:49:11.890Z,17.90
2023-09-27T17:51:41.676Z,17.80
2023-09-27T17:54:09.630Z,17.60
2023-09-27T17:56:36.422Z,17.50
2023-09-27T17:59:03.193Z,17.40
2023-09-27T18:01:29.972Z,17.20
2023-09-27T18:03:57.061Z,17.10
2023-09-27T18:06:24.328Z,17.00
2023-09-27T18:08:51.063Z,16.90
2023-09-27T18:11:17.886Z,16.80
2023-09-27T18:13:45.166Z,16.70
2023-09-27T18:16:16.431Z,16.60
2023-09-27T18:18:44.019Z,16.50
2023-09-27T18:21:14.888Z,16.50
2023-09-27T18:23:42.643Z,16.40
2023-09-27T18:26:10.631Z,16.30
2023-09-27T18:28:37.693Z,16.30
2023-09-27T18:31:04.629Z,16.20
2023-09-27T18:33:31.433Z,16.10
2023-09-27T18:35:58.241Z,16.00
2023-09-27T18:38:25.014Z,15.90
2023-09-27T18:40:51.832Z,15.80
2023-09-27T18:43:19.595Z,15.90
2023-09-27T18:45:46.976Z,15.80
2023-09-27T18:48:14.503Z,15.80
2023-09-27T18:50:41.460Z,15.70
2023-09-27T18:53:08.426Z,15.60
2023-09-27T18:55:35.178Z,15.50
2023-09-27T18:58:02.021Z,15.50
2023-09-27T19:00:28.772Z,15.40
2023-09-27T19:02:55.634Z,15.40
2023-09-27T19:05:22.554Z,15.30
2023-09-27T19:07:49.681Z,15.30
2023-09-27T19:10:16.419Z,15.30
2023-09-27T19:12:43.259Z,15.30
2023-09-27T19:15:10.754Z,15.20
2023-09-27T19:17:37.651Z,15.10
2023-09-27T19:20:07.216Z,15.10
2023-09-27T19:22:34.046Z,15.10
2023-09-27T19:25:00.880Z,15.10
2023-09-27T19:27:27.567Z,15.10
2023-09-27T19:29:54.310Z,15.00
2023-09-27T19:32:22.144Z,15.00
2023-09-27T19:34:49.990Z,15.00
2023-09-27T19:37:17.603Z,15.00
2023-09-27T19:39:44.351Z,14.90
2023-09-27T19:42:11.088Z,14.90
2023-09-27T19:44:37.941Z,14.90
2023-09-27T19:47:07.943Z,15.00
2023-09-27T19:49:35.750Z,15.00
2023-09-27T19:52:03.425Z,15.00
2023-09-27T19:54:30.200Z,14.90
2023-09-27T19:56:56.999Z,14.90
2023-09-27T19:59:23.876Z,14.80
2023-09-27T20:01:51.199Z,14.70
2023-09-27T20:04:17.925Z,14.60
2023-09-27T20:06:44.623Z,14.50
2023-09-27T20:09:11.327Z,14.40
2023-09-27T20:11:38.487Z,14.30
2023-09-27T20:14:05.538Z,14.20
2023-09-27T20:16:33.801Z,14.20
2023-09-27T20:19:01.258Z,14.00
2023-09-27T20:21:27.923Z,14.00
2023-09-27T20:23:54.924Z,13.90
2023-09-27T20:26:22.550Z,13.90
2023-09-27T20:28:49.371Z,13.80
2023-09-27T20:31:18.690Z,13.80
2023-09-27T20:33:45.766Z,13.70
2023-09-27T20:36:13.136Z,13.70
2023-09-27T20:38:40.576Z,13.60
2023-09-27T20:41:08.191Z,13.50
2023-09-27T20:43:34.973Z,13.40
2023-09-27T20:46:01.814Z,13.40
2023-09-27T20:48:28.604Z,13.40
2023-09-27T20:50:58.391Z,13.30
2023-09-27T20:53:25.536Z,13.20
2023-09-27T20:55:55.194Z,13.20
2023-09-27T20:58:22.463Z,13.10
2023-09-27T21:00:49.331Z,13.10
2023-09-27T21:03:16.163Z,13.00
2023-09-27T21:05:43.763Z,13.00
2023-09-27T21:08:10.536Z,12.90
2023-09-27T21:10:37.403Z,12.80
2023-09-27T21:13:04.319Z,12.80
2023-09-27T21:15:31.003Z,12.70
2023-09-27T21:17:57.848Z,12.70
2023-09-27T21:20:24.756Z,12.60
2023-09-27T21:22:51.556Z,12.50
2023-09-27T21:25:18.352Z,12.50
2023-09-27T21:27:46.191Z,12.50
2023-09-27T21:30:13.011Z,12.50
2023-09-27T21:32:39.773Z,12.50
2023-09-27T21:35:07.078Z,12.40
2023-09-27T21:37:33.843Z,12.40
2023-09-27T21:40:00.570Z,12.40
2023-09-27T21:42:27.388Z,12.40
2023-09-27T21:44:54.277Z,12.40
2023-09-27T21:47:20.969Z,12.30
2023-09-27T21:49:47.710Z,12.30
2023-09-27T21:52:14.463Z,12.20
2023-09-27T21:54:41.168Z,12.20
2023-09-27T21:57:07.951Z,12.20
2023-09-27T21:59:34.699Z,12.20
2023-09-27T22:02:01.428Z,12.20
2023-09-27T22:04:28.269Z,12.10
2023-09-27T22:06:55.016Z,12.10
2023-09-27T22:09:23.811Z,12.10
2023-09-27T22:11:52.637Z,12.10
2023-09-27T22:14:21.259Z,12.20
2023-09-27T22:16:49.228Z,12.10
2023-09-27T22:19:16.005Z,12.00
2023-09-27T22:21:46.470Z,11.90
2023-09-27T22:24:14.133Z,11.90
2023-09-27T22:26:43.140Z,11.90
2023-09-27T22:29:10.051Z,11.80
2023-09-27T22:31:37.613Z,11.80
2023-09-27T22:34:11.738Z,11.80
2023-09-27T22:36:42.668Z,11.70
2023-09-27T22:39:16.518Z,11.70
2023-09-27T22:41:43.769Z,11.70
2023-09-27T22:44:23.593Z,11.60
2023-09-27T22:46:52.731Z,11.60
2023-09-27T22:49:20.497Z,11.60
2023-09-27T22:51:47.710Z,11.60
2023-09-27T22:54:15.815Z,11.60
2023-09-27T22:56:46.459Z,11.50
2023-09-27T22:59:14.058Z,11.50
2023-09-27T23:01:41.832Z,11.40
2023-09-27T23:04:15.344Z,11.40
2023-09-27T23:06:46.440Z,11.30
2023-09-27T23:09:21.884Z,11.30
2023-09-27T23:11:56.542Z,11.30
2023-09-27T23:14:23.524Z,11.20
2023-09-27T23:16:51.207Z,11.20
2023-09-27T23:19:19.261Z,11.10
2023-09-27T23:21:49.506Z,11.10
2023-09-27T23:24:22.161Z,11.00
2023-09-27T23:27:01.022Z,11.00
2023-09-27T23:29:30.570Z,11.00
2023-09-27T23:32:26.318Z,10.90
2023-09-27T23:34:55.901Z,10.90
2023-09-27T23:37:32.167Z,10.90
2023-09-27T23:39:59.993Z,10.80
2023-09-27T23:42:27.024Z,10.80
2023-09-27T23:44:54.901Z,10.70
2023-09-27T23:47:23.549Z,10.70
2023-09-27T23:49:56.857Z,10.60
2023-09-27T23:52:25.196Z,10.60
2023-09-27T23:54:55.325Z,10.60
2023-09-27T23:57:28.307Z,10.60
2023-09-27T23:59:56.837Z,10.60
